Time;durP1;ratioP1;P1;durP2;ratioP2;P2;SDS_P1;SDS_P2;PMS_P1;PMS_P2;Temp;Humidity;BMP_temperature;BMP_pressure;BME280_temperature;BME280_humidity;BME280_pressure;Samples;Min_cycle;Max_cycle;Signal;HPM_P1;HPM_P2
2023/01/23 05:01:24;;;;;;;20.10;11.60;;;2.30;99.90;;;;;;5583913;23;21086;-70
2023/01/23 05:03:52;;;;;;;22.50;13.40;;;2.30;99.90;;;;;;4987449;28;20466;-70
2023/01/23 05:06:19;;;;;;;19.30;11.70;;;2.30;99.90;;;;;;4986771;28;20618;-70
2023/01/23 05:08:46;;;;;;;22.57;12.07;;;2.30;99.90;;;;;;4987414;28;20503;-70
2023/01/23 05:11:13;;;;;;;20.63;12.00;;;2.30;99.90;;;;;;4987048;28;20476;-70
2023/01/23 05:13:40;;;;;;;19.50;11.60;;;2.30;99.90;;;;;;4986818;28;20932;-70
2023/01/23 05:16:07;;;;;;;21.47;11.87;;;2.30;99.90;;;;;;4986637;28;20942;-70
2023/01/23 05:18:35;;;;;;;23.47;12.97;;;2.30;99.90;;;;;;4987381;28;20451;-70
2023/01/23 05:21:02;;;;;;;21.40;12.40;;;2.30;99.90;;;;;;4985837;28;20493;-70
2023/01/23 05:23:29;;;;;;;21.40;11.53;;;2.30;99.90;;;;;;4987694;28;20442;-70
2023/01/23 05:25:56;;;;;;;23.77;13.40;;;2.30;99.90;;;;;;4987176;28;20455;-70
2023/01/23 05:28:22;;;;;;;22.73;12.70;;;2.30;99.90;;;;;;4987201;28;20499;-70
2023/01/23 05:30:49;;;;;;;20.70;11.90;;;2.20;99.90;;;;;;4985308;28;20483;-70
2023/01/23 05:33:16;;;;;;;22.73;12.93;;;2.20;99.90;;;;;;4987469;28;20459;-70
2023/01/23 05:35:44;;;;;;;21.83;12.73;;;2.20;99.90;;;;;;4987344;28;20462;-70
2023/01/23 05:38:12;;;;;;;23.17;13.30;;;2.10;99.90;;;;;;4986594;28;20447;-70
2023/01/23 05:40:39;;;;;;;21.37;12.90;;;2.10;99.90;;;;;;4986697;28;20479;-70
2023/01/23 05:43:06;;;;;;;25.23;13.30;;;2.20;99.90;;;;;;4987106;28;20455;-69
2023/01/23 05:45:33;;;;;;;22.97;12.87;;;2.20;99.90;;;;;;4987058;28;20546;-68
2023/01/23 05:48:00;;;;;;;27.10;13.53;;;2.20;99.90;;;;;;4986126;28;20486;-68
2023/01/23 05:50:27;;;;;;;25.80;14.00;;;2.20;99.90;;;;;;4986761;28;20451;-69
2023/01/23 05:52:55;;;;;;;23.23;13.33;;;2.20;99.90;;;;;;4986947;28;20502;-68
2023/01/23 05:55:22;;;;;;;24.13;13.67;;;2.20;99.90;;;;;;4986581;28;20460;-68
2023/01/23 05:57:48;;;;;;;27.97;14.70;;;2.20;99.90;;;;;;4986221;28;20470;-69
2023/01/23 06:00:16;;;;;;;23.47;13.73;;;2.20;99.90;;;;;;4986754;28;20462;-67
2023/01/23 06:02:43;;;;;;;25.83;14.03;;;2.20;99.90;;;;;;4986766;28;20459;-66
2023/01/23 06:05:10;;;;;;;25.63;14.00;;;2.20;99.90;;;;;;4986527;28;20967;-67
2023/01/23 06:07:37;;;;;;;24.93;13.60;;;2.30;99.90;;;;;;4985842;28;20491;-67
2023/01/23 06:10:07;;;;;;;26.73;14.60;;;2.30;99.90;;;;;;4986514;28;21124;-66
2023/01/23 06:12:34;;;;;;;27.80;14.70;;;2.20;99.90;;;;;;4987116;28;20487;-66
2023/01/23 06:15:00;;;;;;;25.80;14.10;;;2.30;99.90;;;;;;4987057;28;20455;-67
2023/01/23 06:17:27;;;;;;;30.83;15.50;;;2.30;99.90;;;;;;4985880;28;20451;-68
2023/01/23 06:19:54;;;;;;;23.57;14.10;;;2.20;99.90;;;;;;4986007;28;20458;-67
2023/01/23 06:22:21;;;;;;;27.13;14.60;;;2.20;99.90;;;;;;4986332;28;20483;-67
2023/01/23 06:24:47;;;;;;;24.77;13.70;;;2.20;99.90;;;;;;4986372;28;20467;-67
2023/01/23 06:27:15;;;;;;;29.30;15.63;;;2.20;99.90;;;;;;4985472;28;20458;-67
2023/01/23 06:29:42;;;;;;;28.70;15.67;;;2.10;99.90;;;;;;4985626;28;20974;-67
2023/01/23 06:32:09;;;;;;;27.70;14.70;;;2.10;99.90;;;;;;4986245;28;20476;-68
2023/01/23 06:34:36;;;;;;;25.63;15.13;;;2.10;99.90;;;;;;4986102;28;20842;-68
2023/01/23 06:37:03;;;;;;;28.30;13.43;;;2.10;99.90;;;;;;4985246;28;20467;-67
2023/01/23 06:39:30;;;;;;;30.17;15.47;;;2.10;99.90;;;;;;4986010;28;20448;-68
2023/01/23 06:41:56;;;;;;;26.90;14.23;;;2.10;99.90;;;;;;4986200;28;20558;-68
2023/01/23 06:44:25;;;;;;;33.43;16.77;;;2.10;99.90;;;;;;4984963;28;20459;-69
2023/01/23 06:46:52;;;;;;;28.00;14.10;;;2.10;99.90;;;;;;4984510;28;20454;-68
2023/01/23 06:49:19;;;;;;;28.07;13.40;;;2.10;99.90;;;;;;4985227;28;20878;-69
2023/01/23 06:51:46;;;;;;;25.80;13.30;;;2.20;99.90;;;;;;4984952;28;20486;-69
2023/01/23 06:54:13;;;;;;;28.30;15.07;;;2.20;99.90;;;;;;4985199;28;20467;-69
2023/01/23 06:56:39;;;;;;;29.27;15.07;;;2.20;99.90;;;;;;4984514;28;20497;-67
2023/01/23 06:59:06;;;;;;;29.87;15.37;;;2.20;99.90;;;;;;4985084;28;20808;-69
2023/01/23 07:01:34;;;;;;;29.17;15.73;;;2.20;99.90;;;;;;4984797;28;20807;-68
2023/01/23 07:04:01;;;;;;;27.77;15.10;;;2.20;99.90;;;;;;4984961;28;20458;-68
2023/01/23 07:06:30;;;;;;;25.97;15.03;;;2.10;99.90;;;;;;4984764;28;20544;-69
2023/01/23 07:08:57;;;;;;;28.63;15.80;;;2.20;99.90;;;;;;4984562;28;21172;-68
2023/01/23 07:11:24;;;;;;;29.80;16.23;;;2.20;99.90;;;;;;4984766;28;21028;-69
2023/01/23 07:13:51;;;;;;;29.17;15.23;;;2.20;99.90;;;;;;4984834;28;20456;-69
2023/01/23 07:16:17;;;;;;;30.53;16.53;;;2.10;99.90;;;;;;4984427;28;20466;-67
2023/01/23 07:18:46;;;;;;;28.70;15.53;;;2.20;99.90;;;;;;4985260;28;20459;-69
2023/01/23 07:21:12;;;;;;;30.70;15.50;;;2.20;99.90;;;;;;4984981;28;20487;-69
2023/01/23 07:23:39;;;;;;;32.20;16.33;;;2.20;99.90;;;;;;4985396;28;20459;-69
2023/01/23 07:26:08;;;;;;;30.27;14.70;;;2.20;99.90;;;;;;4985310;28;20868;-69
2023/01/23 07:28:35;;;;;;;33.33;15.07;;;2.20;99.90;;;;;;4986059;28;20487;-69
2023/01/23 07:31:02;;;;;;;26.93;14.70;;;2.20;99.90;;;;;;4984840;28;20480;-69
2023/01/23 07:33:29;;;;;;;25.97;13.67;;;2.20;99.90;;;;;;4986996;28;20800;-69
2023/01/23 07:35:57;;;;;;;28.50;15.80;;;2.20;99.90;;;;;;4988388;28;20452;-67
2023/01/23 07:38:24;;;;;;;29.93;16.27;;;2.30;99.90;;;;;;4988807;28;20450;-69
2023/01/23 07:40:51;;;;;;;35.77;17.50;;;2.30;99.90;;;;;;4988811;28;20538;-69
2023/01/23 07:43:18;;;;;;;31.20;15.93;;;2.20;99.90;;;;;;4989104;28;20466;-69
2023/01/23 07:45:45;;;;;;;28.70;14.07;;;2.20;99.90;;;;;;4989255;28;20467;-68
2023/01/23 07:48:12;;;;;;;26.97;14.20;;;2.10;99.90;;;;;;4988469;28;20495;-69
2023/01/23 07:50:38;;;;;;;32.23;17.20;;;2.10;99.90;;;;;;4988865;28;21002;-69
2023/01/23 07:53:07;;;;;;;27.80;14.70;;;2.20;99.90;;;;;;4989421;28;20453;-69
2023/01/23 07:55:34;;;;;;;25.77;13.20;;;2.20;99.90;;;;;;4989301;28;20467;-69
2023/01/23 07:58:00;;;;;;;23.10;12.53;;;2.10;99.90;;;;;;4988570;28;20455;-69
2023/01/23 08:00:28;;;;;;;23.07;13.00;;;2.10;99.90;;;;;;4988543;28;20455;-70
2023/01/23 08:02:55;;;;;;;22.77;12.83;;;2.10;99.90;;;;;;4989040;28;20455;-69
2023/01/23 08:05:22;;;;;;;19.10;11.80;;;2.10;99.90;;;;;;4989262;28;20462;-69
2023/01/23 08:07:49;;;;;;;20.10;11.40;;;2.10;99.90;;;;;;4987822;28;20462;-69
2023/01/23 08:10:17;;;;;;;22.07;12.60;;;2.10;99.90;;;;;;4988918;28;20987;-69
2023/01/23 08:12:44;;;;;;;20.83;11.43;;;2.00;99.90;;;;;;4988528;28;20451;-68
2023/01/23 08:15:12;;;;;;;18.20;10.20;;;2.10;99.90;;;;;;4988905;28;20542;-68
2023/01/23 08:17:39;;;;;;;22.60;11.20;;;2.10;99.90;;;;;;4988195;28;20456;-70
2023/01/23 08:20:06;;;;;;;24.90;11.97;;;2.10;99.90;;;;;;4988584;28;20454;-69
2023/01/23 08:22:33;;;;;;;18.07;10.20;;;2.10;99.90;;;;;;4988432;28;20478;-69
2023/01/23 08:25:00;;;;;;;18.27;11.60;;;2.10;99.90;;;;;;4988561;28;20459;-69
2023/01/23 08:27:28;;;;;;;19.97;10.47;;;2.10;99.90;;;;;;4987481;28;20464;-69
2023/01/23 08:29:55;;;;;;;19.03;11.20;;;2.10;99.90;;;;;;4988488;28;20867;-69
2023/01/23 08:32:21;;;;;;;17.00;10.57;;;2.10;99.90;;;;;;4988192;28;20486;-69
2023/01/23 08:34:48;;;;;;;17.73;10.80;;;2.00;99.90;;;;;;4988714;28;20463;-69
2023/01/23 08:37:15;;;;;;;20.90;11.43;;;2.00;99.90;;;;;;4987958;28;20479;-69
2023/01/23 08:39:42;;;;;;;20.83;10.50;;;2.10;99.90;;;;;;4988103;28;20455;-69
2023/01/23 08:42:09;;;;;;;16.97;10.07;;;2.10;99.90;;;;;;4988086;28;20505;-68
2023/01/23 08:44:37;;;;;;;16.13;9.73;;;2.10;99.90;;;;;;4987799;28;20951;-69
2023/01/23 08:47:04;;;;;;;16.70;10.00;;;2.10;99.90;;;;;;4987616;28;20456;-69
2023/01/23 08:49:30;;;;;;;15.70;9.33;;;2.10;99.90;;;;;;4988146;28;20503;-68
2023/01/23 08:51:58;;;;;;;16.53;10.80;;;2.10;99.90;;;;;;4988515;28;20472;-69
2023/01/23 08:54:25;;;;;;;15.47;9.17;;;2.10;99.90;;;;;;4988050;28;20987;-68
2023/01/23 08:56:52;;;;;;;17.50;9.47;;;2.10;99.90;;;;;;4987439;28;20841;-69
2023/01/23 08:59:19;;;;;;;17.20;9.50;;;2.10;99.90;;;;;;4987895;28;20939;-69
2023/01/23 09:01:47;;;;;;;18.03;9.93;;;2.20;99.90;;;;;;4987618;28;20487;-68
2023/01/23 09:04:16;;;;;;;15.30;9.37;;;2.20;99.90;;;;;;4988065;28;20461;-69
2023/01/23 09:06:43;;;;;;;14.10;9.23;;;2.20;99.90;;;;;;4987580;28;20472;-69
2023/01/23 09:09:10;;;;;;;15.90;8.90;;;2.10;99.90;;;;;;4986999;28;20494;-68
2023/01/23 09:11:36;;;;;;;14.33;9.10;;;2.20;99.90;;;;;;4986179;28;20475;-69
2023/01/23 09:14:03;;;;;;;15.50;9.37;;;2.10;99.90;;;;;;4987739;28;20463;-69
2023/01/23 09:16:30;;;;;;;13.80;9.33;;;2.10;99.90;;;;;;4986932;28;20459;-69
2023/01/23 09:18:58;;;;;;;17.87;9.57;;;2.10;99.90;;;;;;4987391;28;20458;-69
2023/01/23 09:21:25;;;;;;;15.73;9.60;;;2.10;99.90;;;;;;4987247;28;20472;-69
2023/01/23 09:23:52;;;;;;;16.30;9.70;;;2.10;99.90;;;;;;4985917;28;20460;-69
2023/01/23 09:26:19;;;;;;;16.97;9.17;;;2.20;99.90;;;;;;4986350;28;20455;-69
2023/01/23 09:28:46;;;;;;;15.53;10.10;;;2.20;99.90;;;;;;4987392;28;20521;-68
2023/01/23 09:31:13;;;;;;;17.63;10.17;;;2.30;99.90;;;;;;4987512;28;20472;-68
2023/01/23 09:33:41;;;;;;;18.70;11.40;;;2.30;99.90;;;;;;4987292;28;20463;-68
2023/01/23 09:36:10;;;;;;;15.80;9.47;;;2.30;99.90;;;;;;4986181;28;20463;-69
2023/01/23 09:38:37;;;;;;;13.53;8.90;;;2.30;99.90;;;;;;4987167;28;20459;-69
2023/01/23 09:41:11;;;;;;;15.90;8.60;;;2.30;99.90;;;;;;4987266;28;20622;-67
2023/01/23 09:43:44;;;;;;;18.07;9.10;;;2.30;99.90;;;;;;4987092;28;20538;-69
2023/01/23 09:46:19;;;;;;;14.90;8.93;;;2.30;99.90;;;;;;4986509;28;20807;-69
2023/01/23 09:48:50;;;;;;;14.43;8.93;;;2.30;99.90;;;;;;4986523;28;20495;-69
2023/01/23 09:51:25;;;;;;;14.90;9.70;;;2.30;99.90;;;;;;4987937;28;20477;-69
2023/01/23 09:53:55;;;;;;;15.90;9.70;;;2.30;99.90;;;;;;4987097;28;20554;-67
2023/01/23 09:56:29;;;;;;;18.13;10.63;;;2.30;99.90;;;;;;4985581;28;20443;-69
2023/01/23 09:59:02;;;;;;;16.87;9.50;;;2.40;99.90;;;;;;4986684;28;20447;-69
2023/01/23 10:01:31;;;;;;;16.10;10.33;;;2.40;99.90;;;;;;4986579;28;21003;-68
2023/01/23 10:03:59;;;;;;;22.80;11.13;;;2.40;99.90;;;;;;4986684;28;20464;-68
2023/01/23 10:06:30;;;;;;;16.57;10.83;;;2.40;99.90;;;;;;4986041;28;20452;-69
2023/01/23 10:09:23;;;;;;;19.00;10.30;;;2.50;99.90;;;;;;4986553;28;21290;-69
2023/01/23 10:11:59;;;;;;;20.53;10.83;;;2.50;99.90;;;;;;4980222;28;20498;-68
2023/01/23 10:14:49;;;;;;;17.33;10.03;;;2.50;99.90;;;;;;4986796;28;20442;-69
2023/01/23 10:17:26;;;;;;;17.40;10.37;;;2.50;99.90;;;;;;4985860;28;20428;-69
2023/01/23 10:20:17;;;;;;;17.63;10.33;;;2.50;99.90;;;;;;4986479;28;20799;-69
2023/01/23 10:22:51;;;;;;;16.37;9.93;;;2.50;99.90;;;;;;4986660;28;20462;-69
2023/01/23 10:25:22;;;;;;;16.40;9.93;;;2.50;99.90;;;;;;4986507;28;20829;-69
2023/01/23 10:27:51;;;;;;;16.37;9.90;;;2.60;99.90;;;;;;4985832;28;20817;-69
2023/01/23 10:30:22;;;;;;;19.17;10.80;;;2.60;99.90;;;;;;4986199;28;20495;-70
2023/01/23 10:32:52;;;;;;;18.80;11.17;;;2.60;99.90;;;;;;4986027;28;20868;-69
2023/01/23 10:35:24;;;;;;;17.53;10.17;;;2.60;99.90;;;;;;4986078;28;20459;-69
2023/01/23 10:38:00;;;;;;;21.53;11.40;;;2.60;99.90;;;;;;4985543;28;20455;-69
2023/01/23 10:43:13;;;;;;;18.30;10.30;;;2.60;99.90;;;;;;4986092;28;20431;-69
2023/01/23 10:45:42;;;;;;;18.60;10.97;;;2.70;99.90;;;;;;4985755;28;20455;-69
2023/01/23 10:48:27;;;;;;;19.30;10.80;;;2.70;99.90;;;;;;4985530;28;20459;-69
2023/01/23 10:50:54;;;;;;;17.47;10.50;;;2.80;99.90;;;;;;4986175;28;20506;-69
2023/01/23 10:53:23;;;;;;;18.43;10.50;;;2.80;99.90;;;;;;4985885;28;20443;-69
2023/01/23 10:55:52;;;;;;;23.40;10.77;;;2.70;99.90;;;;;;4986085;28;20455;-67
2023/01/23 10:58:29;;;;;;;18.23;10.67;;;2.70;99.90;;;;;;4986224;28;20479;-69
2023/01/23 11:00:56;;;;;;;20.73;11.23;;;2.70;99.90;;;;;;4985548;28;20483;-69
2023/01/23 11:03:28;;;;;;;19.13;10.77;;;2.80;99.90;;;;;;4986012;28;20471;-69
2023/01/23 11:05:56;;;;;;;19.83;10.70;;;2.80;99.90;;;;;;4985889;28;20448;-69
2023/01/23 11:08:27;;;;;;;21.20;10.73;;;2.80;99.90;;;;;;4989818;28;20701;-69
2023/01/23 11:10:54;;;;;;;15.80;9.83;;;2.80;99.90;;;;;;4989508;28;20502;-70
2023/01/23 11:13:29;;;;;;;17.83;10.80;;;2.90;99.90;;;;;;4989664;28;20465;-68
2023/01/23 11:15:56;;;;;;;19.27;11.53;;;2.90;99.90;;;;;;4989593;28;20451;-69
2023/01/23 11:18:31;;;;;;;17.87;10.60;;;2.90;99.90;;;;;;4989427;28;20463;-70
2023/01/23 11:20:58;;;;;;;18.10;10.23;;;3.00;99.90;;;;;;4989619;28;21305;-68
2023/01/23 11:23:26;;;;;;;19.30;11.40;;;3.00;99.90;;;;;;4989877;28;20458;-69
2023/01/23 11:25:54;;;;;;;18.03;10.40;;;3.00;99.90;;;;;;4988793;28;20451;-69
2023/01/23 11:28:25;;;;;;;16.53;10.40;;;3.10;99.90;;;;;;4989315;28;20806;-69
2023/01/23 11:30:56;;;;;;;15.60;9.40;;;3.10;99.90;;;;;;4989582;28;20546;-68
2023/01/23 11:33:37;;;;;;;17.60;10.60;;;3.10;99.90;;;;;;4989618;28;20805;-68
2023/01/23 11:36:12;;;;;;;20.97;12.00;;;3.10;99.90;;;;;;4989380;28;20450;-68
2023/01/23 11:38:45;;;;;;;16.53;9.40;;;3.10;99.90;;;;;;4989309;28;20466;-69
2023/01/23 11:41:13;;;;;;;20.10;10.47;;;3.10;99.90;;;;;;4989141;28;20479;-69
2023/01/23 11:43:40;;;;;;;19.13;10.77;;;3.20;99.90;;;;;;4989517;28;20474;-69
2023/01/23 11:46:23;;;;;;;18.40;10.80;;;3.20;99.90;;;;;;4989028;28;20459;-69
2023/01/23 11:49:14;;;;;;;19.00;10.77;;;3.30;99.90;;;;;;4989459;28;20464;-69
2023/01/23 11:51:47;;;;;;;17.53;10.40;;;3.40;99.90;;;;;;4988726;28;20471;-68
2023/01/23 11:54:36;;;;;;;16.87;9.93;;;3.40;99.90;;;;;;4989711;28;20436;-69
2023/01/23 11:57:11;;;;;;;16.60;9.90;;;3.50;99.90;;;;;;4988540;28;20455;-69
2023/01/23 11:59:53;;;;;;;17.67;11.20;;;3.60;99.90;;;;;;4989010;28;20450;-68
2023/01/23 12:03:01;;;;;;;16.00;9.60;;;3.60;99.90;;;;;;4988822;28;21086;-69
2023/01/23 12:05:55;;;;;;;14.27;9.50;;;3.70;99.90;;;;;;4981325;28;20478;-69
2023/01/23 12:08:31;;;;;;;15.30;10.33;;;3.80;99.90;;;;;;4986473;28;20470;-69
2023/01/23 12:11:11;;;;;;;17.33;11.67;;;3.90;99.90;;;;;;4989275;28;20494;-69
2023/01/23 12:13:59;;;;;;;17.40;11.07;;;3.90;99.90;;;;;;4989408;28;20920;-68
2023/01/23 12:16:47;;;;;;;15.10;9.10;;;3.90;99.90;;;;;;4988919;28;20948;-69
2023/01/23 12:19:24;;;;;;;14.57;9.73;;;3.90;99.90;;;;;;4976020;28;20463;-70
2023/01/23 12:22:00;;;;;;;18.37;10.07;;;3.90;99.90;;;;;;4988484;28;20575;-67
2023/01/23 12:24:43;;;;;;;17.30;10.40;;;3.90;99.90;;;;;;4988270;28;20446;-70
2023/01/23 12:27:21;;;;;;;16.97;9.97;;;4.00;99.90;;;;;;4987907;28;21098;-68
2023/01/23 12:30:17;;;;;;;15.13;9.80;;;4.00;99.90;;;;;;4988801;28;20478;-68
2023/01/23 12:32:54;;;;;;;13.07;8.50;;;4.10;99.90;;;;;;4988559;28;20461;-67
2023/01/23 12:35:32;;;;;;;14.87;9.93;;;4.10;99.90;;;;;;4988354;28;20448;-69
2023/01/23 12:38:21;;;;;;;16.03;9.83;;;4.10;99.90;;;;;;4987605;28;20451;-68
2023/01/23 12:40:53;;;;;;;14.93;9.53;;;4.10;99.90;;;;;;4988116;28;20578;-68
2023/01/23 12:43:31;;;;;;;15.93;10.00;;;4.00;99.90;;;;;;4988554;28;20471;-68
2023/01/23 12:46:05;;;;;;;14.60;8.87;;;4.00;99.90;;;;;;4987833;28;21272;-67
2023/01/23 12:48:37;;;;;;;13.70;9.30;;;4.00;99.90;;;;;;4988433;28;20465;-71
2023/01/23 12:51:10;;;;;;;15.20;8.70;;;4.00;99.90;;;;;;4987968;28;20499;-68
2023/01/23 12:53:39;;;;;;;17.10;10.10;;;4.00;99.90;;;;;;4988215;28;20445;-68
2023/01/23 12:56:10;;;;;;;14.73;9.57;;;4.00;99.90;;;;;;4987185;28;20461;-67
2023/01/23 12:58:42;;;;;;;15.37;9.40;;;4.00;99.90;;;;;;4987700;28;20460;-69
2023/01/23 13:01:20;;;;;;;14.73;8.80;;;4.10;99.90;;;;;;4988014;28;20486;-67
2023/01/23 13:03:58;;;;;;;16.97;9.90;;;4.10;99.90;;;;;;4988071;28;20907;-67
2023/01/23 13:06:33;;;;;;;13.00;8.97;;;4.20;99.90;;;;;;4986951;28;20456;-68
2023/01/23 13:09:06;;;;;;;16.43;9.30;;;4.20;99.90;;;;;;4988665;28;20505;-67
2023/01/23 13:11:47;;;;;;;14.43;8.73;;;4.30;99.90;;;;;;4988859;28;20509;-68
2023/01/23 13:14:22;;;;;;;16.80;8.70;;;4.30;99.90;;;;;;4988764;28;20451;-68
2023/01/23 13:16:50;;;;;;;16.47;10.20;;;4.30;99.90;;;;;;4987965;28;20510;-68
2023/01/23 13:22:23;;;;;;;18.17;10.10;;;4.40;99.90;;;;;;4988306;28;20462;-68
2023/01/23 13:25:11;;;;;;;14.03;8.70;;;4.40;99.90;;;;;;4988133;28;20964;-68
2023/01/23 13:27:46;;;;;;;15.70;9.27;;;4.40;99.90;;;;;;4986716;28;21023;-68
2023/01/23 13:30:41;;;;;;;16.13;10.37;;;4.40;99.90;;;;;;4987436;28;20840;-67
2023/01/23 13:33:53;;;;;;;14.43;9.03;;;4.40;99.90;;;;;;4984480;28;20460;-67
2023/01/23 13:36:35;;;;;;;14.10;9.20;;;4.50;99.90;;;;;;4986939;28;20447;-68
2023/01/23 13:39:19;;;;;;;17.70;9.77;;;4.60;99.90;;;;;;4985499;28;20466;-68
2023/01/23 13:41:49;;;;;;;12.30;8.13;;;4.60;99.90;;;;;;4984188;28;20487;-68
2023/01/23 13:44:25;;;;;;;13.50;8.60;;;4.60;99.90;;;;;;4985854;28;20928;-67
2023/01/23 13:49:49;;;;;;;16.77;10.07;;;4.70;99.90;;;;;;4985499;28;20455;-67
2023/01/23 13:50:03;;;;;;;16.90;10.20;;;4.70;99.90;;;;;;4985613;28;21109;-68
2023/01/23 13:58:13;;;;;;;17.40;10.30;;;4.80;99.90;;;;;;4985210;28;20442;-68
2023/01/23 14:00:43;;;;;;;14.70;9.53;;;4.90;99.90;;;;;;4985363;28;20558;-67
2023/01/23 14:06:13;;;;;;;17.47;9.87;;;4.90;99.90;;;;;;4985045;28;20518;-68
2023/01/23 14:08:49;;;;;;;17.70;9.00;;;4.90;99.90;;;;;;4986013;28;20455;-67
2023/01/23 14:11:17;;;;;;;15.80;10.33;;;4.80;99.90;;;;;;4985394;28;21014;-68
2023/01/23 14:16:08;;;;;;;13.33;9.30;;;4.90;99.90;;;;;;4985574;28;20465;-69
2023/01/23 14:16:39;;;;;;;18.03;9.77;;;4.90;99.90;;;;;;4985216;28;21228;-68
2023/01/23 14:19:24;;;;;;;15.63;10.77;;;4.90;99.90;;;;;;4986480;28;20466;-67
2023/01/23 14:21:53;;;;;;;14.10;9.90;;;4.80;99.90;;;;;;4986780;28;20480;-68
2023/01/23 14:24:22;;;;;;;15.57;9.00;;;4.80;99.90;;;;;;4985727;28;20466;-69
2023/01/23 14:26:51;;;;;;;18.63;9.13;;;4.70;99.90;;;;;;4985246;28;20491;-68
2023/01/23 14:29:21;;;;;;;14.40;9.20;;;4.70;99.90;;;;;;4986479;28;20514;-68
2023/01/23 14:31:49;;;;;;;13.40;9.60;;;4.70;99.90;;;;;;4986084;28;21010;-68
2023/01/23 14:34:19;;;;;;;18.30;9.70;;;4.70;99.90;;;;;;4986159;28;20951;-69
2023/01/23 14:36:49;;;;;;;16.43;9.60;;;4.60;99.90;;;;;;4985810;28;20483;-69
2023/01/23 14:39:19;;;;;;;14.43;9.27;;;4.60;99.90;;;;;;4986162;28;20816;-68
2023/01/23 14:41:47;;;;;;;17.27;9.80;;;4.60;99.90;;;;;;4985791;28;20482;-68
2023/01/23 14:44:19;;;;;;;14.93;9.33;;;4.60;99.90;;;;;;4986297;28;20460;-69
2023/01/23 14:46:50;;;;;;;17.50;9.17;;;4.50;99.90;;;;;;4985645;28;20501;-68
2023/01/23 14:49:24;;;;;;;15.90;9.63;;;4.50;99.90;;;;;;4987010;28;20447;-68
2023/01/23 14:51:56;;;;;;;15.00;10.20;;;4.60;99.90;;;;;;4985901;28;20522;-68
2023/01/23 14:54:23;;;;;;;17.73;11.10;;;4.50;99.90;;;;;;4985987;28;20451;-68
2023/01/23 14:56:52;;;;;;;16.23;9.70;;;4.50;99.90;;;;;;4985020;28;20456;-68
2023/01/23 14:59:25;;;;;;;15.03;9.80;;;4.50;99.90;;;;;;4985867;28;20843;-68
2023/01/23 15:01:56;;;;;;;19.23;10.97;;;4.40;99.90;;;;;;4985841;28;21003;-68
2023/01/23 15:04:26;;;;;;;16.63;10.80;;;4.40;99.90;;;;;;4985995;28;20455;-68
2023/01/23 15:06:55;;;;;;;16.93;10.50;;;4.30;99.90;;;;;;4985282;28;20950;-68
2023/01/23 15:09:27;;;;;;;16.97;9.97;;;4.20;99.90;;;;;;4985807;28;20451;-68
2023/01/23 15:11:55;;;;;;;18.97;11.27;;;4.20;99.90;;;;;;4986204;28;20522;-68
2023/01/23 15:14:25;;;;;;;18.33;10.73;;;4.10;99.90;;;;;;4986179;28;20506;-68
2023/01/23 15:17:00;;;;;;;20.30;10.77;;;4.00;99.90;;;;;;4985128;28;20833;-68
2023/01/23 15:19:29;;;;;;;18.30;12.53;;;3.90;99.90;;;;;;4985745;28;20859;-68
2023/01/23 15:22:07;;;;;;;18.13;9.47;;;3.90;99.90;;;;;;4985108;28;21602;-68
2023/01/23 15:24:34;;;;;;;16.00;10.07;;;3.90;99.90;;;;;;4985757;28;20456;-68
2023/01/23 15:27:04;;;;;;;19.07;11.00;;;3.90;99.90;;;;;;4985276;28;20456;-68
2023/01/23 15:29:32;;;;;;;17.20;10.40;;;3.90;99.90;;;;;;4985612;28;20440;-68
2023/01/23 15:32:00;;;;;;;15.83;10.87;;;3.90;99.90;;;;;;4985362;28;20586;-68
2023/01/23 15:34:31;;;;;;;19.77;11.67;;;3.90;99.90;;;;;;4985646;28;20462;-68
2023/01/23 15:37:04;;;;;;;16.33;10.10;;;3.90;99.90;;;;;;4985455;28;20447;-69
2023/01/23 15:39:34;;;;;;;17.45;11.80;;;3.90;99.90;;;;;;4984925;28;20519;-68
2023/01/23 15:42:03;;;;;;;19.77;12.07;;;4.00;99.90;;;;;;4985711;28;20235;-67
2023/01/23 15:44:31;;;;;;;17.63;10.90;;;4.10;99.90;;;;;;4985714;28;20460;-68
2023/01/23 15:46:59;;;;;;;18.70;10.90;;;4.00;99.90;;;;;;4984517;28;20459;-68
2023/01/23 15:49:27;;;;;;;15.90;10.07;;;3.90;99.90;;;;;;4985501;28;20455;-68
2023/01/23 15:51:57;;;;;;;16.33;10.63;;;3.90;99.90;;;;;;4985400;28;20500;-68
2023/01/23 15:54:28;;;;;;;19.03;10.40;;;3.90;99.90;;;;;;4988463;28;20443;-69
2023/01/23 15:56:55;;;;;;;19.03;11.53;;;3.80;99.90;;;;;;4988476;28;20947;-68
2023/01/23 15:59:22;;;;;;;19.00;11.40;;;3.80;99.90;;;;;;4989052;28;20477;-68
2023/01/23 16:01:49;;;;;;;17.00;10.90;;;3.90;99.90;;;;;;4988283;28;20479;-68
2023/01/23 16:04:16;;;;;;;15.83;10.50;;;3.90;99.90;;;;;;4988562;28;20451;-68
2023/01/23 16:06:44;;;;;;;17.60;11.77;;;3.80;99.90;;;;;;4988338;28;20485;-68
2023/01/23 16:09:22;;;;;;;16.10;11.10;;;3.70;99.90;;;;;;4988648;28;20828;-68
2023/01/23 16:11:48;;;;;;;14.10;10.30;;;3.70;99.90;;;;;;4988590;28;20499;-67
2023/01/23 16:14:17;;;;;;;17.67;10.73;;;3.70;99.90;;;;;;4987388;28;20455;-67
2023/01/23 16:16:44;;;;;;;20.63;10.93;;;3.70;99.90;;;;;;4987691;28;20455;-68
2023/01/23 16:19:11;;;;;;;24.83;11.17;;;3.70;99.90;;;;;;4988876;28;20535;-68
2023/01/23 16:21:38;;;;;;;16.20;10.20;;;3.80;99.90;;;;;;4988688;28;20483;-68
2023/01/23 16:24:05;;;;;;;19.40;11.03;;;3.80;99.90;;;;;;4988924;28;20455;-67
2023/01/23 16:26:36;;;;;;;21.10;11.87;;;3.80;99.90;;;;;;4986727;28;20952;-68
2023/01/23 16:29:03;;;;;;;19.90;12.10;;;3.80;99.90;;;;;;4988598;28;20443;-68
2023/01/23 16:31:30;;;;;;;18.20;11.57;;;3.80;99.90;;;;;;4988468;28;20502;-68
2023/01/23 16:33:57;;;;;;;19.60;12.53;;;3.80;99.90;;;;;;4988297;28;20458;-68
2023/01/23 16:36:24;;;;;;;17.50;11.23;;;3.90;99.90;;;;;;4985897;28;20466;-69
2023/01/23 16:38:55;;;;;;;18.83;11.40;;;3.90;99.90;;;;;;4987700;28;20481;-70
2023/01/23 16:41:22;;;;;;;14.23;9.60;;;3.90;99.90;;;;;;4987570;28;20875;-71
2023/01/23 16:43:50;;;;;;;19.30;11.60;;;3.90;99.90;;;;;;4987784;28;20455;-71
2023/01/23 16:46:18;;;;;;;19.80;11.63;;;4.00;99.90;;;;;;4986897;28;20456;-71
2023/01/23 16:48:45;;;;;;;18.20;10.80;;;4.00;99.90;;;;;;4987104;28;20451;-71
2023/01/23 16:51:17;;;;;;;19.13;11.33;;;4.00;99.90;;;;;;4986766;28;21026;-70
2023/01/23 16:53:50;;;;;;;19.97;11.80;;;4.00;99.90;;;;;;4986862;28;20460;-71
2023/01/23 16:56:21;;;;;;;18.80;10.93;;;4.00;99.90;;;;;;4986461;28;20467;-71
2023/01/23 16:58:50;;;;;;;16.97;10.77;;;4.00;99.90;;;;;;4987272;28;20892;-71
2023/01/23 17:01:20;;;;;;;19.63;12.30;;;4.00;99.90;;;;;;4986716;28;20490;-71
2023/01/23 17:03:54;;;;;;;15.90;10.80;;;4.00;99.90;;;;;;4986608;28;20460;-71
2023/01/23 17:06:21;;;;;;;18.23;11.00;;;4.00;99.90;;;;;;4986410;28;20451;-71
2023/01/23 17:08:48;;;;;;;17.60;11.00;;;4.00;99.90;;;;;;4987458;28;20948;-70
2023/01/23 17:11:19;;;;;;;15.73;9.83;;;4.10;99.90;;;;;;4987706;28;20522;-71
2023/01/23 17:13:47;;;;;;;19.40;11.60;;;4.10;99.90;;;;;;4985844;28;20456;-71
2023/01/23 17:16:15;;;;;;;17.73;10.97;;;4.10;99.90;;;;;;4986842;28;20469;-71
2023/01/23 17:18:42;;;;;;;18.23;10.90;;;4.10;99.90;;;;;;4987358;28;20461;-71
2023/01/23 17:21:16;;;;;;;21.63;11.53;;;4.10;99.90;;;;;;4987264;28;20881;-71
2023/01/23 17:23:43;;;;;;;20.47;12.23;;;4.00;99.90;;;;;;4987415;28;20467;-71
2023/01/23 17:26:15;;;;;;;20.03;9.93;;;4.00;99.90;;;;;;4987015;28;21608;-71
2023/01/23 17:28:42;;;;;;;17.67;10.70;;;3.90;99.90;;;;;;4987718;28;20442;-71
2023/01/23 17:31:18;;;;;;;17.80;10.50;;;3.90;99.90;;;;;;4986942;28;20499;-71
2023/01/23 17:33:45;;;;;;;20.83;11.23;;;3.80;99.90;;;;;;4987419;28;20440;-71
2023/01/23 17:36:14;;;;;;;16.30;10.57;;;3.90;99.90;;;;;;4986734;28;20455;-71
2023/01/23 17:38:41;;;;;;;18.87;11.17;;;3.90;99.90;;;;;;4987555;28;20455;-71
2023/01/23 17:41:12;;;;;;;15.53;10.40;;;3.80;99.90;;;;;;4987003;28;20537;-71
2023/01/23 17:43:39;;;;;;;15.97;9.93;;;3.80;99.90;;;;;;4987143;28;20455;-71
2023/01/23 17:46:07;;;;;;;17.13;10.60;;;3.90;99.90;;;;;;4986398;28;20522;-70
2023/01/23 17:48:40;;;;;;;15.87;10.77;;;3.90;99.90;;;;;;4986509;28;20912;-71
2023/01/23 17:51:15;;;;;;;16.80;11.90;;;3.90;99.90;;;;;;4986586;28;20996;-71
2023/01/23 17:53:42;;;;;;;16.20;10.77;;;3.80;99.90;;;;;;4987029;28;20501;-71
2023/01/23 17:56:10;;;;;;;33.83;18.60;;;3.80;99.90;;;;;;4985912;28;20950;-70
2023/01/23 17:58:37;;;;;;;25.27;14.50;;;3.80;99.90;;;;;;4987258;28;20463;-71
2023/01/23 18:01:06;;;;;;;21.00;12.80;;;3.90;99.90;;;;;;4986702;28;20618;-71
2023/01/23 18:03:33;;;;;;;15.33;10.90;;;3.90;99.90;;;;;;4986975;28;20459;-71
2023/01/23 18:06:01;;;;;;;19.33;10.57;;;3.90;99.90;;;;;;4988282;28;20451;-71
2023/01/23 18:08:28;;;;;;;18.50;10.80;;;3.90;99.90;;;;;;4987869;28;20463;-70
2023/01/23 18:10:57;;;;;;;18.23;12.20;;;3.90;99.90;;;;;;4987678;28;20873;-72
2023/01/23 18:13:33;;;;;;;22.87;14.50;;;3.90;99.90;;;;;;4988110;28;20474;-71